createdAt,value
2023-02-04T00:00:30.934Z,11.49
2023-02-04T00:02:59.031Z,11.50
2023-02-04T00:05:26.946Z,11.46
2023-02-04T00:07:54.703Z,11.46
2023-02-04T00:10:22.518Z,11.50
2023-02-04T00:12:50.398Z,11.54
2023-02-04T00:15:18.122Z,11.54
2023-02-04T00:17:47.250Z,11.51
2023-02-04T00:20:15.327Z,11.54
2023-02-04T00:22:42.998Z,11.54
2023-02-04T00:25:10.780Z,11.54
2023-02-04T00:27:39.343Z,11.56
2023-02-04T00:30:08.366Z,11.56
2023-02-04T00:32:36.341Z,11.57
2023-02-04T00:35:05.868Z,11.55
2023-02-04T00:37:34.027Z,11.54
2023-02-04T00:40:01.942Z,11.54
2023-02-04T00:42:29.876Z,11.52
2023-02-04T00:44:57.802Z,11.53
2023-02-04T00:47:25.657Z,11.44
2023-02-04T00:49:53.455Z,11.41
2023-02-04T00:52:22.559Z,11.36
2023-02-04T00:54:50.318Z,11.37
2023-02-04T00:57:18.294Z,11.44
2023-02-04T00:59:46.162Z,11.44
2023-02-04T01:02:14.037Z,11.44
2023-02-04T01:04:41.898Z,11.45
2023-02-04T01:07:09.759Z,11.45
2023-02-04T01:09:38.930Z,11.46
2023-02-04T01:12:06.802Z,11.46
2023-02-04T01:14:34.571Z,11.47
2023-02-04T01:17:02.378Z,11.48
2023-02-04T01:19:30.186Z,11.47
2023-02-04T01:21:57.993Z,11.46
2023-02-04T01:24:25.661Z,11.46
2023-02-04T01:26:54.753Z,11.45
2023-02-04T01:29:22.514Z,11.43
2023-02-04T01:31:50.256Z,11.43
2023-02-04T01:34:18.047Z,11.43
2023-02-04T01:36:45.817Z,11.42
2023-02-04T01:39:13.838Z,11.41
2023-02-04T01:41:41.958Z,11.41
2023-02-04T01:44:11.552Z,11.43
2023-02-04T01:46:39.339Z,11.41
2023-02-04T01:49:07.825Z,11.39
2023-02-04T01:51:37.127Z,11.41
2023-02-04T01:54:05.491Z,11.37
2023-02-04T01:56:33.571Z,11.38
2023-02-04T01:59:01.418Z,11.38
2023-02-04T02:01:39.057Z,11.32
2023-02-04T02:04:06.995Z,11.29
2023-02-04T02:06:35.892Z,11.32
2023-02-04T02:09:03.779Z,11.31
2023-02-04T02:11:31.731Z,11.32
2023-02-04T02:13:59.809Z,11.33
2023-02-04T02:16:27.856Z,11.30
2023-02-04T02:18:57.805Z,11.31
2023-02-04T02:21:33.335Z,11.32
2023-02-04T02:24:29.991Z,11.33
2023-02-04T02:26:59.684Z,11.34
2023-02-04T02:29:28.280Z,11.31
2023-02-04T02:31:58.330Z,11.31
2023-02-04T02:34:27.397Z,11.28
2023-02-04T02:36:55.865Z,11.30
2023-02-04T02:39:26.155Z,11.30
2023-02-04T02:41:54.108Z,11.28
2023-02-04T02:44:22.174Z,11.29
2023-02-04T02:46:50.264Z,11.30
2023-02-04T02:49:20.219Z,11.28
2023-02-04T02:51:49.261Z,11.25
2023-02-04T02:54:24.153Z,11.25
2023-02-04T02:56:54.725Z,11.24
2023-02-04T02:59:22.609Z,11.24
2023-02-04T03:01:54.705Z,11.20
2023-02-04T03:04:23.627Z,11.19
2023-02-04T03:06:52.129Z,11.17
2023-02-04T03:09:20.916Z,11.16
2023-02-04T03:11:49.502Z,11.17
2023-02-04T03:14:19.081Z,11.16
2023-02-04T03:16:48.470Z,11.13
2023-02-04T03:19:16.344Z,11.13
2023-02-04T03:21:44.555Z,11.07
2023-02-04T03:24:12.844Z,11.00
2023-02-04T03:26:40.792Z,11.00
2023-02-04T03:29:09.978Z,10.98
2023-02-04T03:31:39.183Z,11.02
2023-02-04T03:34:07.232Z,11.05
2023-02-04T03:36:36.489Z,10.98
2023-02-04T03:39:04.427Z,10.94
2023-02-04T03:41:32.084Z,10.96
2023-02-04T03:43:59.661Z,10.91
2023-02-04T03:46:28.647Z,10.88
2023-02-04T03:48:57.685Z,10.91
2023-02-04T03:51:25.407Z,10.90
2023-02-04T03:53:52.989Z,10.82
2023-02-04T03:56:20.605Z,10.82
2023-02-04T03:58:48.256Z,10.79
2023-02-04T04:01:15.972Z,10.73
2023-02-04T04:03:43.596Z,10.75
2023-02-04T04:06:12.542Z,10.75
2023-02-04T04:08:40.435Z,10.72
2023-02-04T04:11:08.116Z,10.72
2023-02-04T04:13:35.717Z,10.70
2023-02-04T04:16:04.872Z,10.71
2023-02-04T04:18:32.754Z,10.73
2023-02-04T04:21:00.478Z,10.77
2023-02-04T04:23:29.551Z,10.78
2023-02-04T04:25:57.187Z,10.78
2023-02-04T04:28:24.883Z,10.80
2023-02-04T04:30:52.580Z,10.79
2023-02-04T04:33:20.276Z,10.80
2023-02-04T04:35:47.935Z,10.80
2023-02-04T04:38:15.629Z,10.76
2023-02-04T04:40:44.592Z,10.74
2023-02-04T04:43:12.264Z,10.69
2023-02-04T04:45:39.919Z,10.70
2023-02-04T04:48:07.586Z,10.69
2023-02-04T04:50:35.221Z,10.70
2023-02-04T04:53:03.135Z,10.70
2023-02-04T04:55:30.747Z,10.73
2023-02-04T04:57:59.692Z,10.71
2023-02-04T05:00:27.457Z,10.72
2023-02-04T05:02:55.354Z,10.71
2023-02-04T05:05:23.007Z,10.71
2023-02-04T05:07:50.644Z,10.70
2023-02-04T05:10:18.605Z,10.69
2023-02-04T05:12:46.215Z,10.63
2023-02-04T05:15:15.291Z,10.60
2023-02-04T05:17:42.941Z,10.64
2023-02-04T05:20:11.416Z,10.67
2023-02-04T05:22:39.013Z,10.66
2023-02-04T05:25:07.321Z,10.64
2023-02-04T05:27:34.935Z,10.62
2023-02-04T05:30:02.614Z,10.59
2023-02-04T05:32:31.661Z,10.56
2023-02-04T05:34:59.260Z,10.56
2023-02-04T05:37:26.933Z,10.58
2023-02-04T05:39:54.557Z,10.48
2023-02-04T05:42:22.169Z,10.47
2023-02-04T05:44:50.040Z,10.45
2023-02-04T05:47:18.748Z,10.43
2023-02-04T05:49:47.744Z,10.45
2023-02-04T05:52:15.399Z,10.45
2023-02-04T05:54:43.044Z,10.44
2023-02-04T05:57:10.622Z,10.43
2023-02-04T05:59:38.377Z,10.38
2023-02-04T06:02:06.004Z,10.34
2023-02-04T06:04:33.682Z,10.31
2023-02-04T06:07:03.308Z,10.32
2023-02-04T06:09:30.938Z,10.28
2023-02-04T06:11:58.565Z,10.26
2023-02-04T06:14:26.270Z,10.22
2023-02-04T06:16:54.017Z,10.20
2023-02-04T06:19:21.708Z,10.18
2023-02-04T06:21:49.515Z,10.18
2023-02-04T06:24:18.434Z,10.17
2023-02-04T06:26:46.101Z,10.20
2023-02-04T06:29:13.791Z,10.20
2023-02-04T06:31:41.566Z,10.19
2023-02-04T06:34:09.265Z,10.19
2023-02-04T06:36:36.892Z,10.20
2023-02-04T06:39:04.667Z,10.21
2023-02-04T06:41:33.675Z,10.17
2023-02-04T06:44:01.345Z,10.11
2023-02-04T06:46:29.009Z,10.10
2023-02-04T06:48:57.134Z,10.02
2023-02-04T06:51:24.779Z,9.99
2023-02-04T06:53:52.591Z,9.99
2023-02-04T06:56:20.212Z,10.03
2023-02-04T06:58:49.209Z,10.07
2023-02-04T07:01:16.904Z,10.08
2023-02-04T07:03:44.526Z,10.11
2023-02-04T07:06:12.210Z,10.14
2023-02-04T07:08:39.866Z,10.15
2023-02-04T07:11:07.704Z,10.11
2023-02-04T07:13:35.400Z,10.11
2023-02-04T07:16:04.425Z,10.14
2023-02-04T07:18:32.220Z,10.15
2023-02-04T07:21:00.011Z,10.16
2023-02-04T07:23:28.574Z,10.19
2023-02-04T07:25:57.385Z,10.17
2023-02-04T07:28:25.149Z,10.22
2023-02-04T07:30:52.905Z,10.27
2023-02-04T07:33:21.975Z,10.30
2023-02-04T07:35:49.609Z,10.32
2023-02-04T07:38:17.233Z,10.34
2023-02-04T07:40:44.893Z,10.34
2023-02-04T07:43:12.749Z,10.35
2023-02-04T07:45:40.412Z,10.34
2023-02-04T07:48:08.087Z,10.33
2023-02-04T07:50:37.219Z,10.32
2023-02-04T07:53:05.087Z,10.37
2023-02-04T07:55:32.853Z,10.40
2023-02-04T07:58:00.594Z,10.40
2023-02-04T08:00:28.425Z,10.43
2023-02-04T08:02:56.203Z,10.50
2023-02-04T08:05:23.954Z,10.51
2023-02-04T08:07:52.972Z,10.50
2023-02-04T08:10:21.427Z,10.54
2023-02-04T08:12:49.190Z,10.58
2023-02-04T08:15:16.884Z,10.59
2023-02-04T08:17:44.503Z,10.63
2023-02-04T08:20:13.125Z,10.66
2023-02-04T08:22:41.090Z,10.70
2023-02-04T08:25:11.802Z,10.72
2023-02-04T08:27:39.688Z,10.74
2023-02-04T08:30:08.547Z,10.76
2023-02-04T08:32:36.639Z,10.78
2023-02-04T08:35:06.456Z,10.83
2023-02-04T08:37:34.809Z,10.90
2023-02-04T08:40:02.663Z,10.99
2023-02-04T08:42:31.995Z,11.10
2023-02-04T08:44:59.804Z,11.17
2023-02-04T08:47:27.780Z,11.21
2023-02-04T08:49:55.625Z,11.29
2023-02-04T08:52:23.587Z,11.31
2023-02-04T08:54:51.397Z,11.29
2023-02-04T08:57:19.370Z,11.27
2023-02-04T08:59:48.369Z,11.27
2023-02-04T09:02:16.200Z,11.31
2023-02-04T09:04:44.096Z,11.37
2023-02-04T09:07:12.063Z,11.44
2023-02-04T09:09:39.861Z,11.44
2023-02-04T09:12:07.879Z,11.48
2023-02-04T09:14:35.737Z,11.50
2023-02-04T09:17:05.822Z,11.52
2023-02-04T09:19:33.649Z,11.56
2023-02-04T09:22:01.587Z,11.57
2023-02-04T09:24:29.256Z,11.54
2023-02-04T09:26:57.024Z,11.50
2023-02-04T09:29:24.843Z,11.47
2023-02-04T09:31:52.527Z,11.47
2023-02-04T09:34:21.880Z,11.52
2023-02-04T09:36:49.754Z,11.57
2023-02-04T09:39:17.655Z,11.64
2023-02-04T09:41:45.466Z,11.73
2023-02-04T09:44:17.695Z,11.79
2023-02-04T09:46:49.575Z,11.93
2023-02-04T09:49:21.775Z,12.29
2023-02-04T09:51:51.116Z,12.70
2023-02-04T09:54:20.988Z,13.06
2023-02-04T09:56:49.140Z,13.73
2023-02-04T09:59:19.897Z,14.13
2023-02-04T10:01:49.692Z,14.62
2023-02-04T10:04:17.599Z,15.09
2023-02-04T10:06:46.674Z,15.13
2023-02-04T10:09:17.037Z,14.96
2023-02-04T10:11:48.119Z,14.77
2023-02-04T10:14:19.221Z,14.52
2023-02-04T10:16:53.502Z,14.30
2023-02-04T10:19:21.235Z,14.12
2023-02-04T10:21:50.734Z,14.03
2023-02-04T10:24:21.154Z,14.22
2023-02-04T10:26:49.125Z,14.44
2023-02-04T10:29:19.110Z,14.69
2023-02-04T10:31:48.727Z,14.93
2023-02-04T10:34:19.133Z,15.04
2023-02-04T10:36:48.846Z,15.18
2023-02-04T10:39:19.409Z,15.02
2023-02-04T10:41:50.044Z,14.90
2023-02-04T10:44:19.706Z,14.84
2023-02-04T10:46:47.340Z,14.84
2023-02-04T10:49:23.187Z,14.82
2023-02-04T10:51:52.747Z,14.73
2023-02-04T10:54:30.902Z,14.64
2023-02-04T10:57:00.318Z,14.65
2023-02-04T10:59:29.076Z,14.59
2023-02-04T11:01:58.589Z,14.37
2023-02-04T11:04:28.699Z,14.16
2023-02-04T11:06:56.460Z,13.92
2023-02-04T11:09:25.638Z,13.63
2023-02-04T11:11:53.436Z,13.30
2023-02-04T11:14:28.157Z,12.98
2023-02-04T11:17:00.537Z,12.73
2023-02-04T11:19:37.795Z,12.54
2023-02-04T11:22:20.905Z,12.40
2023-02-04T11:24:50.201Z,12.21
2023-02-04T11:27:26.775Z,12.12
2023-02-04T11:30:06.566Z,12.08
2023-02-04T11:32:37.856Z,11.97
2023-02-04T11:35:26.221Z,11.99
2023-02-04T11:37:55.767Z,11.93
2023-02-04T11:40:33.250Z,11.91
2023-02-04T11:43:03.534Z,11.90
2023-02-04T11:45:34.933Z,11.91
2023-02-04T11:48:04.800Z,11.92
2023-02-04T11:50:35.683Z,12.02
2023-02-04T11:53:03.835Z,12.28
2023-02-04T11:55:36.575Z,12.57
2023-02-04T11:58:05.459Z,12.87
2023-02-04T12:00:34.633Z,13.00
2023-02-04T12:03:06.204Z,13.37
2023-02-04T12:05:40.946Z,15.76
2023-02-04T12:08:13.439Z,18.42
2023-02-04T12:10:49.230Z,20.26
2023-02-04T12:13:20.560Z,20.71
2023-02-04T12:15:56.556Z,21.08
2023-02-04T12:18:24.259Z,20.93
2023-02-04T12:20:51.872Z,19.92
2023-02-04T12:23:19.546Z,18.85
2023-02-04T12:25:48.981Z,17.68
2023-02-04T12:28:16.761Z,16.96
2023-02-04T12:30:44.530Z,16.98
2023-02-04T12:33:14.721Z,16.86
2023-02-04T12:35:42.836Z,16.51
2023-02-04T12:38:11.004Z,16.09
2023-02-04T12:40:39.797Z,15.60
2023-02-04T12:43:09.622Z,15.21
2023-02-04T12:45:37.905Z,14.83
2023-02-04T12:48:06.023Z,14.57
2023-02-04T12:50:33.926Z,14.34
2023-02-04T12:53:01.885Z,14.19
2023-02-04T12:55:31.117Z,14.14
2023-02-04T12:57:59.104Z,14.14
2023-02-04T13:00:28.490Z,14.25
2023-02-04T13:02:59.209Z,14.23
2023-02-04T13:05:27.378Z,14.14
2023-02-04T13:07:55.749Z,13.91
2023-02-04T13:10:24.033Z,13.68
2023-02-04T13:12:51.796Z,13.57
2023-02-04T13:15:19.988Z,13.55
2023-02-04T13:17:49.667Z,13.48
2023-02-04T13:20:17.790Z,13.52
2023-02-04T13:22:45.484Z,13.63
2023-02-04T13:25:13.649Z,13.90
2023-02-04T13:27:41.912Z,14.08
2023-02-04T13:30:13.008Z,14.05
2023-02-04T13:32:41.068Z,13.98
2023-02-04T13:35:10.494Z,13.84
2023-02-04T13:37:38.651Z,13.75
2023-02-04T13:40:07.895Z,13.70
2023-02-04T13:42:35.836Z,13.65
2023-02-04T13:45:07.826Z,13.45
2023-02-04T13:47:35.830Z,13.12
2023-02-04T13:50:03.906Z,12.85
2023-02-04T13:52:34.468Z,12.81
2023-02-04T13:55:02.494Z,12.79
2023-02-04T13:57:30.983Z,12.81
2023-02-04T13:59:59.050Z,12.94
2023-02-04T14:02:27.052Z,12.90
2023-02-04T14:04:54.890Z,12.80
2023-02-04T14:07:22.716Z,12.85
2023-02-04T14:09:51.852Z,12.82
2023-02-04T14:12:19.772Z,12.76
2023-02-04T14:14:48.035Z,12.73
2023-02-04T14:17:16.143Z,12.67
2023-02-04T14:19:43.955Z,12.54
2023-02-04T14:22:13.222Z,12.58
2023-02-04T14:24:42.678Z,12.64
2023-02-04T14:27:12.270Z,12.68
2023-02-04T14:29:40.320Z,12.62
2023-02-04T14:32:08.495Z,12.51
2023-02-04T14:34:36.593Z,12.36
2023-02-04T14:37:04.561Z,12.30
2023-02-04T14:39:32.231Z,12.18
2023-02-04T14:42:00.669Z,12.08
2023-02-04T14:44:29.721Z,12.07
2023-02-04T14:46:57.367Z,11.97
2023-02-04T14:49:25.696Z,11.86
2023-02-04T14:51:53.376Z,11.84
2023-02-04T14:54:21.183Z,11.79
2023-02-04T14:56:50.407Z,11.77
2023-02-04T14:59:18.222Z,11.75
2023-02-04T15:01:47.544Z,11.73
2023-02-04T15:04:15.822Z,11.66
2023-02-04T15:06:43.788Z,11.70
2023-02-04T15:09:11.630Z,11.70
2023-02-04T15:11:39.417Z,11.73
2023-02-04T15:14:07.281Z,11.68
2023-02-04T15:16:35.412Z,11.67
2023-02-04T15:19:04.738Z,11.55
2023-02-04T15:21:32.490Z,11.49
2023-02-04T15:24:00.140Z,11.44
2023-02-04T15:26:27.847Z,11.43
2023-02-04T15:28:56.040Z,11.43
2023-02-04T15:31:24.341Z,11.46
2023-02-04T15:33:52.326Z,11.42
2023-02-04T15:36:21.453Z,11.39
2023-02-04T15:38:49.404Z,11.40
2023-02-04T15:41:17.164Z,11.39
2023-02-04T15:43:45.139Z,11.36
2023-02-04T15:46:13.046Z,11.36
2023-02-04T15:48:40.834Z,11.34
2023-02-04T15:51:08.621Z,11.30
2023-02-04T15:53:37.781Z,11.33
2023-02-04T15:56:06.307Z,11.24
2023-02-04T15:58:33.991Z,11.16
2023-02-04T16:01:02.245Z,11.18
2023-02-04T16:03:29.996Z,11.15
2023-02-04T16:05:57.794Z,11.09
2023-02-04T16:08:25.741Z,11.04
2023-02-04T16:10:55.104Z,11.00
2023-02-04T16:13:22.917Z,10.96
2023-02-04T16:15:50.671Z,10.87
2023-02-04T16:18:18.534Z,10.86
2023-02-04T16:20:46.563Z,10.86
2023-02-04T16:23:14.378Z,10.84
2023-02-04T16:25:42.179Z,10.85
2023-02-04T16:28:11.555Z,10.89
2023-02-04T16:30:39.844Z,10.85
2023-02-04T16:33:07.884Z,10.79
2023-02-04T16:35:57.568Z,10.76
2023-02-04T16:38:25.570Z,10.73
2023-02-04T16:40:53.440Z,10.74
2023-02-04T16:43:23.353Z,10.74
2023-02-04T16:45:51.591Z,10.73
2023-02-04T16:48:19.447Z,10.70
2023-02-04T16:50:47.221Z,10.70
2023-02-04T16:53:16.232Z,10.70
2023-02-04T16:55:44.647Z,10.69
2023-02-04T16:58:12.891Z,10.69
2023-02-04T17:00:44.071Z,10.67
2023-02-04T17:03:13.087Z,10.71
2023-02-04T17:05:41.874Z,10.74
2023-02-04T17:08:12.611Z,10.72
2023-02-04T17:10:58.497Z,10.71
2023-02-04T17:13:26.247Z,10.69
2023-02-04T17:16:00.486Z,10.72
2023-02-04T17:18:29.603Z,10.72
2023-02-04T17:20:58.076Z,10.71
2023-02-04T17:23:27.059Z,10.63
2023-02-04T17:25:54.948Z,10.58
2023-02-04T17:28:23.324Z,10.56
2023-02-04T17:30:51.184Z,10.59
2023-02-04T17:33:20.534Z,10.61
2023-02-04T17:35:48.644Z,10.62
2023-02-04T17:38:16.434Z,10.60
2023-02-04T17:40:44.187Z,10.59
2023-02-04T17:43:11.897Z,10.56
2023-02-04T17:45:39.635Z,10.55
2023-02-04T17:48:07.348Z,10.54
2023-02-04T17:53:10.606Z,10.49
2023-02-04T17:55:39.831Z,10.44
2023-02-04T17:58:13.960Z,10.46
2023-02-04T18:00:43.065Z,10.42
2023-02-04T18:03:13.737Z,10.39
2023-02-04T18:05:46.181Z,10.36
2023-02-04T18:08:16.316Z,10.33
2023-02-04T18:10:45.754Z,10.30
2023-02-04T18:13:16.378Z,10.20
2023-02-04T18:15:47.210Z,10.15
2023-02-04T18:18:23.740Z,10.16
2023-02-04T18:20:59.428Z,10.15
2023-02-04T18:23:30.113Z,10.14
2023-02-04T18:26:06.153Z,10.11
2023-02-04T18:28:35.420Z,10.08
2023-02-04T18:31:04.123Z,10.06
2023-02-04T18:33:34.443Z,10.10
2023-02-04T18:36:03.523Z,10.10
2023-02-04T18:38:37.245Z,10.04
2023-02-04T18:41:22.716Z,10.03
2023-02-04T18:43:52.867Z,10.02
2023-02-04T18:46:25.147Z,10.08
2023-02-04T18:49:20.259Z,10.10
2023-02-04T18:51:50.786Z,10.14
2023-02-04T18:54:30.898Z,10.13
2023-02-04T18:57:35.948Z,10.09
2023-02-04T19:00:25.358Z,10.09
2023-02-04T19:02:56.546Z,10.10
2023-02-04T19:05:29.906Z,10.12
2023-02-04T19:08:19.963Z,10.15
2023-02-04T19:10:48.551Z,10.16
2023-02-04T19:13:20.519Z,10.15
2023-02-04T19:15:58.842Z,10.12
2023-02-04T19:18:28.866Z,10.11
2023-02-04T19:20:57.026Z,10.09
2023-02-04T19:23:26.229Z,10.06
2023-02-04T19:25:54.230Z,10.04
2023-02-04T19:28:29.020Z,10.02
2023-02-04T19:31:01.877Z,9.97
2023-02-04T19:33:34.393Z,9.90
2023-02-04T19:36:16.265Z,9.92
2023-02-04T19:38:46.456Z,9.92
2023-02-04T19:41:25.545Z,9.75
2023-02-04T19:43:58.315Z,9.62
2023-02-04T19:46:26.795Z,9.59
2023-02-04T19:48:54.679Z,9.47
2023-02-04T19:51:27.094Z,9.36
2023-02-04T19:54:02.665Z,9.34
2023-02-04T19:56:34.924Z,9.33
2023-02-04T19:59:23.543Z,9.24
2023-02-04T20:01:59.644Z,9.16
2023-02-04T20:04:33.532Z,9.17
2023-02-04T20:07:01.435Z,9.22
2023-02-04T20:09:31.018Z,9.31
2023-02-04T20:12:05.734Z,9.43
2023-02-04T20:14:49.316Z,9.37
2023-02-04T20:17:42.692Z,9.38
2023-02-04T20:20:26.168Z,9.40
2023-02-04T20:22:55.968Z,9.37
2023-02-04T20:25:44.987Z,9.47
2023-02-04T20:28:26.708Z,9.40
2023-02-04T20:30:56.081Z,9.41
2023-02-04T20:33:29.140Z,9.44
2023-02-04T20:36:26.537Z,9.33
2023-02-04T20:39:07.395Z,9.34
2023-02-04T20:41:39.010Z,9.27
2023-02-04T20:44:14.674Z,9.25
2023-02-04T20:46:42.674Z,9.26
2023-02-04T20:49:24.008Z,9.23
2023-02-04T20:51:52.876Z,9.14
2023-02-04T20:54:20.635Z,9.17
2023-02-04T20:56:49.748Z,9.18
2023-02-04T20:59:31.050Z,9.11
2023-02-04T21:01:58.862Z,9.17
2023-02-04T21:04:30.760Z,9.15
2023-02-04T21:07:00.976Z,9.13
2023-02-04T21:09:31.295Z,9.10
2023-02-04T21:12:02.254Z,9.03
2023-02-04T21:14:30.664Z,8.94
2023-02-04T21:16:58.489Z,8.85
2023-02-04T21:19:27.829Z,8.62
2023-02-04T21:21:56.405Z,8.48
2023-02-04T21:24:24.696Z,8.48
2023-02-04T21:26:52.962Z,8.58
2023-02-04T21:29:22.108Z,8.62
2023-02-04T21:31:49.802Z,8.68
2023-02-04T21:34:17.826Z,8.61
2023-02-04T21:36:45.823Z,8.54
2023-02-04T21:39:13.454Z,8.55
2023-02-04T21:41:41.277Z,8.61
2023-02-04T21:44:09.090Z,8.64
2023-02-04T21:46:38.136Z,8.63
2023-02-04T21:49:08.236Z,8.61
2023-02-04T21:51:36.021Z,8.56
2023-02-04T21:54:05.659Z,8.46
2023-02-04T21:56:34.855Z,8.34
2023-02-04T21:59:02.562Z,8.23
2023-02-04T22:01:30.195Z,8.12
2023-02-04T22:03:59.376Z,8.18
2023-02-04T22:06:27.105Z,8.23
2023-02-04T22:08:54.765Z,8.28
2023-02-04T22:11:22.729Z,8.19
2023-02-04T22:13:50.415Z,8.24
2023-02-04T22:16:18.053Z,8.24
2023-02-04T22:18:46.575Z,8.16
2023-02-04T22:21:15.556Z,8.23
2023-02-04T22:23:43.284Z,8.17
2023-02-04T22:26:10.949Z,8.06
2023-02-04T22:28:38.600Z,8.05
2023-02-04T22:31:08.321Z,8.01
2023-02-04T22:33:36.602Z,8.04
2023-02-04T22:36:04.663Z,8.01
2023-02-04T22:38:35.319Z,8.08
2023-02-04T22:41:02.973Z,7.95
2023-02-04T22:43:30.819Z,7.89
2023-02-04T22:45:59.092Z,7.86
2023-02-04T22:48:26.913Z,7.84
2023-02-04T22:50:55.429Z,7.79
2023-02-04T22:53:23.060Z,7.69
2023-02-04T22:55:52.239Z,7.57
2023-02-04T22:58:20.094Z,7.53
2023-02-04T23:00:47.914Z,7.49
2023-02-04T23:03:18.376Z,7.50
2023-02-04T23:05:48.269Z,7.26
2023-02-04T23:08:17.835Z,7.23
2023-02-04T23:10:45.720Z,7.28
2023-02-04T23:13:16.512Z,7.40
2023-02-04T23:15:44.749Z,7.30
2023-02-04T23:18:12.957Z,7.08
2023-02-04T23:20:42.030Z,7.02
2023-02-04T23:23:10.535Z,7.07
2023-02-04T23:25:38.354Z,7.11
2023-02-04T23:28:06.459Z,6.99
2023-02-04T23:30:35.752Z,7.00
2023-02-04T23:33:03.500Z,7.05
2023-02-04T23:35:32.057Z,7.00
2023-02-04T23:37:59.972Z,7.04
2023-02-04T23:40:27.781Z,7.09
2023-02-04T23:42:55.515Z,7.11
2023-02-04T23:45:23.313Z,7.14
2023-02-04T23:47:52.474Z,7.11
2023-02-04T23:50:20.306Z,7.04
2023-02-04T23:52:50.317Z,7.00
2023-02-04T23:55:18.710Z,6.97
2023-02-04T23:57:49.444Z,6.98
